Time;durP1;ratioP1;P1;durP2;ratioP2;P2;SDS_P1;SDS_P2;PMS_P1;PMS_P2;Temp;Humidity;BMP_temperature;BMP_pressure;BME280_temperature;BME280_humidity;BME280_pressure;Samples;Min_cycle;Max_cycle;Signal;HPM_P1;HPM_P2
2023/03/04 00:04:02;;;;;;;46.10;25.70;;;;;;;0.18;84.23;98919.10;218450;1295;25474;-73
2023/03/04 00:09:06;;;;;;;50.60;26.40;;;;;;;0.12;83.80;98913.17;218772;1296;22905;-74
2023/03/04 00:14:12;;;;;;;50.00;25.90;;;;;;;0.09;84.03;98911.00;218500;1297;22542;-74
2023/03/04 00:19:14;;;;;;;51.30;27.80;;;;;;;0.09;84.20;98902.36;218513;1295;26597;-74
2023/03/04 00:24:16;;;;;;;53.50;28.50;;;;;;;0.11;84.55;98895.14;218800;1283;22561;-74
2023/03/04 00:29:18;;;;;;;47.10;25.50;;;;;;;0.15;84.69;98895.45;218373;1297;22550;-74
2023/03/04 00:34:21;;;;;;;50.90;29.10;;;;;;;0.17;84.68;98887.81;218339;1297;25335;-74
2023/03/04 00:39:23;;;;;;;50.30;28.60;;;;;;;0.16;84.21;98881.86;218731;1296;22543;-74
2023/03/04 00:44:26;;;;;;;53.50;28.60;;;;;;;0.13;84.09;98880.57;218555;1297;22545;-74
2023/03/04 00:49:31;;;;;;;51.20;28.40;;;;;;;0.10;84.43;98873.19;218558;1297;25404;-75
2023/03/04 00:54:54;;;;;;;47.00;25.60;;;;;;;0.05;84.18;98866.48;218426;1295;22586;-73
2023/03/04 00:59:57;;;;;;;49.90;26.70;;;;;;;-0.02;84.17;98858.20;218573;1297;22587;-74
2023/03/04 01:04:59;;;;;;;45.10;25.40;;;;;;;-0.05;84.25;98845.11;218814;1297;24269;-74
2023/03/04 01:10:01;;;;;;;52.50;27.00;;;;;;;-0.07;84.28;98832.41;218296;1297;25219;-74
2023/03/04 01:15:05;;;;;;;47.20;23.70;;;;;;;-0.10;84.50;98830.92;218532;1289;23218;-74
2023/03/04 01:20:08;;;;;;;46.40;23.80;;;;;;;-0.16;84.20;98824.47;218403;1297;22556;-75
2023/03/04 01:25:10;;;;;;;46.00;22.80;;;;;;;-0.20;84.41;98813.40;218634;1297;23300;-74
2023/03/04 01:30:12;;;;;;;47.70;24.50;;;;;;;-0.24;84.70;98801.72;218820;1292;22728;-74
2023/03/04 01:35:14;;;;;;;43.40;23.40;;;;;;;-0.24;84.44;98795.32;218647;1295;24260;-74
2023/03/04 01:40:17;;;;;;;45.40;23.60;;;;;;;-0.24;84.28;98788.39;218675;1297;24312;-74
2023/03/04 01:45:19;;;;;;;41.90;23.30;;;;;;;-0.21;84.63;98778.29;218312;1295;22559;-74
2023/03/04 01:50:31;;;;;;;49.00;25.60;;;;;;;-0.17;84.30;98764.53;218433;1295;24250;-73
2023/03/04 01:55:34;;;;;;;42.90;22.20;;;;;;;-0.19;84.23;98749.80;218659;1293;22558;-74
2023/03/04 02:00:37;;;;;;;50.00;25.00;;;;;;;-0.20;84.50;98749.19;218748;1296;22543;-75
2023/03/04 02:05:43;;;;;;;49.50;24.60;;;;;;;-0.26;84.35;98737.51;218483;1292;22780;-75
2023/03/04 02:10:45;;;;;;;41.00;23.00;;;;;;;-0.31;84.25;98737.66;218975;1292;23816;-74
2023/03/04 02:15:47;;;;;;;50.30;26.00;;;;;;;-0.34;84.22;98739.90;218337;1296;25248;-74
2023/03/04 02:21:24;;;;;;;41.60;22.80;;;;;;;-0.36;84.74;98739.33;218671;1296;24444;-76
2023/03/04 02:26:28;;;;;;;48.60;24.30;;;;;;;-0.39;84.70;98734.59;218541;1295;23779;-74
2023/03/04 02:31:49;;;;;;;47.40;24.90;;;;;;;-0.44;84.68;98734.97;218864;1297;22610;-74
2023/03/04 02:36:52;;;;;;;43.80;23.50;;;;;;;-0.47;84.33;98730.20;218291;1297;22585;-75
2023/03/04 02:41:56;;;;;;;48.40;23.90;;;;;;;-0.48;84.60;98713.70;218413;1295;23288;-74
2023/03/04 02:46:58;;;;;;;46.50;22.40;;;;;;;-0.50;84.69;98703.06;218674;1297;22623;-73
2023/03/04 02:52:09;;;;;;;42.20;22.10;;;;;;;-0.52;84.94;98705.85;218644;1295;23036;-74
2023/03/04 02:57:13;;;;;;;44.60;22.60;;;;;;;-0.57;84.71;98699.64;218536;1292;25408;-74
2023/03/04 03:02:17;;;;;;;42.60;22.60;;;;;;;-0.56;84.53;98693.02;218657;1295;24288;-74
2023/03/04 03:07:19;;;;;;;41.20;21.40;;;;;;;-0.57;84.80;98685.96;218556;1297;24288;-75
2023/03/04 03:12:23;;;;;;;39.40;20.20;;;;;;;-0.59;84.52;98689.46;218353;1293;22545;-74
2023/03/04 03:17:28;;;;;;;34.80;17.90;;;;;;;-0.63;84.49;98692.40;218401;1293;22563;-74
2023/03/04 03:22:30;;;;;;;43.90;22.60;;;;;;;-0.64;84.81;98686.39;218243;1296;22841;-74
2023/03/04 03:27:32;;;;;;;42.40;22.20;;;;;;;-0.59;84.62;98686.67;218545;1293;24843;-74
2023/03/04 03:32:34;;;;;;;44.00;22.20;;;;;;;-0.57;84.42;98683.94;218494;1297;22543;-74
2023/03/04 03:37:37;;;;;;;45.50;23.00;;;;;;;-0.56;84.69;98687.52;218584;1274;22611;-75
2023/03/04 03:42:39;;;;;;;44.50;23.20;;;;;;;-0.58;84.77;98694.70;218771;1296;24254;-74
2023/03/04 03:47:42;;;;;;;47.40;23.40;;;;;;;-0.58;84.49;98697.28;218658;1297;24247;-74
2023/03/04 03:52:44;;;;;;;45.60;22.80;;;;;;;-0.57;84.68;98694.98;218539;1297;25512;-74
2023/03/04 03:57:46;;;;;;;45.80;23.20;;;;;;;-0.58;84.29;98689.20;218593;1295;22547;-74
2023/03/04 04:02:48;;;;;;;49.20;25.40;;;;;;;-0.62;84.66;98675.88;218422;1295;24246;-75
2023/03/04 04:07:51;;;;;;;51.40;25.80;;;;;;;-0.64;84.79;98677.38;218507;1296;25422;-74
2023/03/04 04:12:55;;;;;;;47.10;24.20;;;;;;;-0.66;84.78;98672.73;218422;1296;22577;-75
2023/03/04 04:18:00;;;;;;;49.90;24.10;;;;;;;-0.67;84.51;98677.45;218398;1297;24347;-75
2023/03/04 04:23:03;;;;;;;43.20;23.30;;;;;;;-0.69;84.39;98681.27;218642;1297;24362;-74
2023/03/04 04:28:06;;;;;;;50.20;23.00;;;;;;;-0.77;84.35;98675.46;218599;1297;22753;-73
2023/03/04 04:33:12;;;;;;;44.60;22.40;;;;;;;-0.87;84.22;98676.42;218751;1280;22580;-74
2023/03/04 04:38:14;;;;;;;47.30;24.20;;;;;;;-0.94;84.13;98677.30;218697;1297;24263;-74
2023/03/04 04:43:16;;;;;;;49.80;24.10;;;;;;;-0.95;84.67;98677.23;218138;1297;22677;-73
2023/03/04 04:48:19;;;;;;;53.50;25.20;;;;;;;-0.91;84.45;98681.58;218498;1295;24278;-74
2023/03/04 04:53:22;;;;;;;50.80;23.70;;;;;;;-0.85;84.53;98676.42;218489;1297;22621;-74
2023/03/04 04:58:24;;;;;;;47.20;23.50;;;;;;;-0.79;84.68;98677.73;218567;1295;22545;-74
2023/03/04 05:03:27;;;;;;;48.70;23.90;;;;;;;-0.73;84.69;98675.98;218601;1297;22576;-74
2023/03/04 05:08:29;;;;;;;53.90;24.60;;;;;;;-0.68;84.72;98669.10;218628;1296;22720;-75
2023/03/04 05:13:32;;;;;;;51.60;25.70;;;;;;;-0.69;84.52;98666.69;218312;1297;25414;-74
2023/03/04 05:18:34;;;;;;;49.30;24.30;;;;;;;-0.69;84.57;98668.46;218467;1297;24285;-74
2023/03/04 05:23:41;;;;;;;51.40;25.60;;;;;;;-0.68;84.47;98663.58;218226;1297;22546;-74
2023/03/04 05:28:44;;;;;;;51.60;24.50;;;;;;;-0.69;84.65;98664.80;218620;1295;25335;-75
2023/03/04 05:33:46;;;;;;;51.40;25.10;;;;;;;-0.67;84.56;98661.22;218472;1297;26588;-74
2023/03/04 05:38:48;;;;;;;49.10;23.20;;;;;;;-0.62;84.53;98655.77;218716;1298;25208;-74
2023/03/04 05:43:50;;;;;;;47.30;22.20;;;;;;;-0.60;84.81;98650.98;218438;1297;24266;-75
2023/03/04 05:48:53;;;;;;;47.00;23.20;;;;;;;-0.59;84.26;98651.73;218458;1282;25429;-75
2023/03/04 05:53:55;;;;;;;47.80;23.90;;;;;;;-0.57;84.61;98656.23;218741;1296;22675;-74
2023/03/04 05:58:59;;;;;;;45.40;22.60;;;;;;;-0.52;84.77;98649.84;218770;1297;22556;-74
2023/03/04 06:04:01;;;;;;;42.80;22.10;;;;;;;-0.49;84.33;98645.09;218403;1296;22549;-74
2023/03/04 06:09:03;;;;;;;41.00;22.30;;;;;;;-0.46;84.59;98643.48;218649;1294;22562;-74
2023/03/04 06:14:06;;;;;;;44.80;23.60;;;;;;;-0.42;84.69;98643.91;218474;1297;22546;-75
2023/03/04 06:19:08;;;;;;;45.50;24.30;;;;;;;-0.38;84.31;98640.88;218744;1297;22619;-74
2023/03/04 06:24:11;;;;;;;42.40;22.40;;;;;;;-0.35;84.48;98644.64;218460;1297;23360;-74
2023/03/04 06:29:13;;;;;;;42.30;23.90;;;;;;;-0.36;84.10;98647.10;218753;1296;26409;-73
2023/03/04 06:34:15;;;;;;;34.20;19.90;;;;;;;-0.34;83.95;98643.16;218456;1297;24420;-75
2023/03/04 06:39:17;;;;;;;36.00;20.10;;;;;;;-0.27;83.78;98647.95;218689;1297;22615;-74
2023/03/04 06:44:22;;;;;;;35.10;20.10;;;;;;;-0.19;83.72;98649.27;218704;1293;22575;-75
2023/03/04 06:49:24;;;;;;;34.40;19.50;;;;;;;-0.12;83.94;98655.52;218482;1297;25379;-75
2023/03/04 06:54:27;;;;;;;29.90;16.40;;;;;;;-0.08;83.25;98654.58;218500;1297;22834;-74
2023/03/04 06:59:29;;;;;;;30.60;17.00;;;;;;;-0.06;83.29;98667.88;218689;1295;23815;-74
2023/03/04 07:04:31;;;;;;;31.00;18.60;;;;;;;-0.00;83.01;98671.40;218493;1298;25554;-74
2023/03/04 07:09:33;;;;;;;30.90;17.60;;;;;;;0.10;83.11;98682.55;218482;1297;22714;-74
2023/03/04 07:14:35;;;;;;;35.00;20.30;;;;;;;0.13;82.70;98677.30;218672;1297;22818;-73
2023/03/04 07:19:37;;;;;;;33.50;18.90;;;;;;;0.17;82.86;98680.90;218792;1296;22542;-74
2023/03/04 07:24:39;;;;;;;34.50;20.60;;;;;;;0.19;82.56;98683.82;218861;1297;22781;-75
2023/03/04 07:29:42;;;;;;;35.20;20.00;;;;;;;0.24;82.63;98685.02;218439;1296;24296;-75
2023/03/04 07:34:44;;;;;;;32.50;20.60;;;;;;;0.27;82.72;98688.58;218595;1292;25424;-74
2023/03/04 07:39:48;;;;;;;38.40;20.90;;;;;;;0.30;82.43;98690.38;218682;1296;22696;-75
2023/03/04 07:44:50;;;;;;;35.60;21.10;;;;;;;0.30;82.64;98698.13;218794;1297;22563;-75
2023/03/04 07:49:53;;;;;;;34.70;20.10;;;;;;;0.36;82.25;98695.27;218548;1284;22603;-75
2023/03/04 07:54:56;;;;;;;32.40;19.40;;;;;;;0.40;82.22;98701.77;218986;1297;22606;-75
2023/03/04 07:59:58;;;;;;;32.00;18.20;;;;;;;0.41;81.96;98707.87;218990;1276;22562;-76
2023/03/04 08:05:01;;;;;;;29.40;17.80;;;;;;;0.41;81.90;98713.38;218592;1283;22900;-77
2023/03/04 08:10:08;;;;;;;29.90;18.60;;;;;;;0.39;81.29;98710.81;218747;1297;22606;-76
2023/03/04 08:15:12;;;;;;;32.60;18.70;;;;;;;0.35;81.29;98715.40;218853;1297;25532;-76
2023/03/04 08:20:14;;;;;;;35.00;20.60;;;;;;;0.37;81.12;98717.77;218892;1283;22572;-75
2023/03/04 08:25:20;;;;;;;32.70;19.60;;;;;;;0.42;81.46;98714.06;218895;1297;24260;-75
2023/03/04 08:30:25;;;;;;;26.00;16.80;;;;;;;0.50;81.25;98704.32;218975;1290;22711;-75
2023/03/04 08:35:28;;;;;;;28.80;17.50;;;;;;;0.51;80.87;98698.73;218825;1297;22549;-76
2023/03/04 08:40:31;;;;;;;29.30;16.50;;;;;;;0.56;80.68;98698.65;218962;1293;22565;-75
2023/03/04 08:45:33;;;;;;;30.80;18.30;;;;;;;0.62;80.49;98699.02;218722;1277;22565;-77
2023/03/04 08:50:35;;;;;;;27.30;17.00;;;;;;;0.68;80.37;98699.70;218790;1297;24914;-75
2023/03/04 08:55:42;;;;;;;26.40;17.30;;;;;;;0.75;80.37;98697.61;218693;1285;22569;-76
2023/03/04 09:00:47;;;;;;;25.90;16.70;;;;;;;0.81;80.27;98689.79;218889;1283;25723;-76
2023/03/04 09:05:50;;;;;;;28.40;16.20;;;;;;;0.88;80.08;98687.58;219204;1289;22544;-75
2023/03/04 09:10:53;;;;;;;26.50;16.80;;;;;;;0.94;80.13;98682.58;218589;1289;22540;-75
2023/03/04 09:15:57;;;;;;;27.00;16.60;;;;;;;0.92;79.64;98677.90;218828;1289;22562;-75
2023/03/04 09:20:59;;;;;;;26.70;16.50;;;;;;;0.87;79.11;98679.70;218734;1297;22795;-75
2023/03/04 09:26:11;;;;;;;25.30;16.70;;;;;;;0.83;79.16;98679.91;218617;1292;22558;-75
2023/03/04 09:31:14;;;;;;;29.30;17.20;;;;;;;0.78;78.75;98684.31;219065;1283;22553;-75
2023/03/04 09:36:20;;;;;;;28.70;17.40;;;;;;;0.78;79.22;98676.70;218830;1296;22566;-75
2023/03/04 09:41:35;;;;;;;30.10;19.30;;;;;;;0.80;79.13;98670.64;218836;1295;22552;-75
2023/03/04 09:46:41;;;;;;;30.40;16.20;;;;;;;0.87;79.54;98670.00;218690;1289;22748;-75
2023/03/04 09:51:56;;;;;;;27.10;17.10;;;;;;;0.93;79.08;98668.46;218734;1283;22581;-75
2023/03/04 09:57:12;;;;;;;27.30;16.40;;;;;;;0.98;79.29;98663.73;218836;1296;24231;-75
2023/03/04 10:02:34;;;;;;;29.70;17.10;;;;;;;0.98;79.08;98665.09;218930;1296;22672;-75
2023/03/04 10:07:41;;;;;;;30.60;16.80;;;;;;;0.96;78.77;98662.63;218892;1293;25420;-76
2023/03/04 10:12:47;;;;;;;27.80;17.30;;;;;;;1.01;79.00;98660.15;219008;1289;22580;-76
2023/03/04 10:17:56;;;;;;;28.00;17.70;;;;;;;1.09;78.86;98657.91;218704;1297;22683;-74
2023/03/04 10:23:10;;;;;;;28.50;17.40;;;;;;;1.10;78.98;98651.95;218748;1295;23405;-77
2023/03/04 10:28:19;;;;;;;32.90;18.80;;;;;;;1.13;79.04;98644.55;218821;1292;22556;-75
2023/03/04 10:33:25;;;;;;;35.80;21.30;;;;;;;1.22;79.26;98638.09;219144;1289;24243;-75
2023/03/04 10:38:33;;;;;;;35.10;19.60;;;;;;;1.27;79.16;98639.05;219212;1289;22569;-76
2023/03/04 10:43:35;;;;;;;35.70;19.90;;;;;;;1.27;78.95;98628.78;218818;1286;22554;-74
2023/03/04 10:48:42;;;;;;;42.20;24.10;;;;;;;1.33;79.35;98625.34;219108;1289;22592;-75
2023/03/04 10:53:47;;;;;;;40.40;22.40;;;;;;;1.35;79.24;98622.34;219018;1289;25362;-75
2023/03/04 10:58:50;;;;;;;42.70;24.50;;;;;;;1.51;79.42;98610.91;219074;1283;22561;-77
2023/03/04 11:03:53;;;;;;;40.30;21.90;;;;;;;1.61;79.05;98596.64;218676;1289;25376;-76
2023/03/04 11:08:58;;;;;;;40.40;22.80;;;;;;;1.67;79.19;98599.73;219425;1289;22677;-77
2023/03/04 11:14:23;;;;;;;37.90;21.70;;;;;;;1.77;79.23;98599.48;219844;1274;157632;-76
2023/03/04 11:19:40;;;;;;;39.30;21.70;;;;;;;1.81;78.88;98598.50;224385;1282;24205;-77
2023/03/04 11:24:43;;;;;;;38.50;20.90;;;;;;;1.84;78.68;98599.73;224339;1292;24148;-78
2023/03/04 11:29:51;;;;;;;40.50;21.50;;;;;;;1.91;78.85;98592.02;224146;1289;24819;-77
2023/03/04 11:35:00;;;;;;;40.50;22.40;;;;;;;1.96;78.40;98585.11;224187;1292;24243;-77
2023/03/04 11:40:10;;;;;;;40.00;20.10;;;;;;;2.00;78.33;98576.64;223493;1286;22602;-77
2023/03/04 11:45:15;;;;;;;39.50;21.00;;;;;;;2.06;78.36;98572.25;218844;1289;22572;-76
2023/03/04 11:50:53;;;;;;;37.20;20.20;;;;;;;2.13;78.27;98569.27;219014;1289;22559;-76
2023/03/04 11:56:23;;;;;;;37.50;20.20;;;;;;;2.26;78.08;98558.55;218740;1290;22653;-74
2023/03/04 12:01:46;;;;;;;33.70;19.20;;;;;;;2.43;78.39;98554.52;219104;1289;22563;-75
2023/03/04 12:07:10;;;;;;;35.00;18.10;;;;;;;2.62;78.05;98542.18;218573;1294;22660;-75
2023/03/04 12:12:28;;;;;;;31.90;17.90;;;;;;;2.77;77.69;98533.64;218423;1280;23777;-75
2023/03/04 12:17:37;;;;;;;32.10;18.80;;;;;;;2.85;77.61;98534.24;218653;1297;25433;-74
2023/03/04 12:22:45;;;;;;;31.20;18.40;;;;;;;2.96;77.64;98534.08;218826;1293;24435;-75
2023/03/04 12:28:06;;;;;;;29.50;17.10;;;;;;;3.02;77.29;98534.48;218162;1296;23178;-75
2023/03/04 12:33:11;;;;;;;30.40;16.00;;;;;;;3.10;77.03;98524.92;218787;1297;22547;-74
2023/03/04 12:38:43;;;;;;;30.60;16.40;;;;;;;3.11;76.85;98521.99;218671;1297;22605;-75
2023/03/04 12:44:12;;;;;;;27.60;17.00;;;;;;;3.21;77.01;98517.39;218682;1295;25261;-75
2023/03/04 12:49:17;;;;;;;26.70;15.60;;;;;;;3.23;77.02;98512.69;218743;1295;24014;-75
2023/03/04 12:54:42;;;;;;;22.90;14.30;;;;;;;3.28;76.67;98503.71;218825;1296;22550;-76
2023/03/04 12:59:57;;;;;;;15.50;10.30;;;;;;;3.37;76.89;98505.55;218692;1297;23289;-75
2023/03/04 13:05:18;;;;;;;15.90;9.20;;;;;;;3.45;77.05;98498.84;218684;1293;22542;-74
2023/03/04 13:10:22;;;;;;;16.70;10.00;;;;;;;3.46;76.61;98493.14;218608;1295;26261;-75
2023/03/04 13:15:24;;;;;;;12.10;8.90;;;;;;;3.45;76.63;98492.25;218689;1293;23683;-74
2023/03/04 13:20:35;;;;;;;11.30;8.00;;;;;;;3.50;77.01;98490.54;218873;1293;23777;-74
2023/03/04 13:25:58;;;;;;;;;;;;;;;3.63;77.15;98490.45;218766;1292;25951;-74
2023/03/04 13:31:08;;;;;;;10.30;6.90;;;;;;;3.72;76.99;98481.02;218725;1295;22563;-75
2023/03/04 13:36:25;;;;;;;8.50;5.70;;;;;;;3.76;76.72;98482.02;218827;1276;26587;-75
2023/03/04 13:41:48;;;;;;;9.30;6.00;;;;;;;3.81;76.52;98477.14;218899;1295;25344;-76
2023/03/04 13:46:51;;;;;;;8.20;5.00;;;;;;;3.87;76.59;98478.41;218545;1297;24023;-75
2023/03/04 13:51:54;;;;;;;8.80;5.40;;;;;;;3.94;76.43;98476.63;218506;1293;22562;-75
2023/03/04 13:57:10;;;;;;;9.70;5.70;;;;;;;3.95;76.04;98474.61;218553;1297;22624;-74
2023/03/04 14:02:15;;;;;;;10.60;6.30;;;;;;;3.94;75.99;98466.48;218622;1295;22719;-75
2023/03/04 14:07:24;;;;;;;8.80;6.00;;;;;;;3.90;75.84;98467.71;218717;1293;25255;-75
2023/03/04 14:12:30;;;;;;;9.00;5.70;;;;;;;3.83;75.71;98472.55;218824;1297;24253;-75
2023/03/04 14:17:36;;;;;;;11.20;6.10;;;;;;;3.79;75.67;98469.87;218807;1292;22563;-75
2023/03/04 14:22:39;;;;;;;18.20;10.70;;;;;;;3.76;75.64;98471.71;218577;1292;25319;-75
2023/03/04 14:27:41;;;;;;;21.20;13.20;;;;;;;3.68;75.49;98469.75;218569;1292;22669;-75
2023/03/04 14:32:44;;;;;;;21.50;13.50;;;;;;;3.52;75.18;98463.30;218259;1297;24780;-75
2023/03/04 14:37:58;;;;;;;24.40;14.20;;;;;;;3.37;75.08;98466.20;218535;1296;22613;-75
2023/03/04 14:43:21;;;;;;;25.70;16.10;;;;;;;3.20;74.92;98469.09;218591;1296;22770;-76
2023/03/04 14:48:27;;;;;;;26.40;16.30;;;;;;;3.10;75.06;98471.41;218616;1297;22560;-75
2023/03/04 14:53:32;;;;;;;23.70;16.00;;;;;;;3.06;75.06;98465.11;218661;1294;22546;-75
2023/03/04 14:58:50;;;;;;;27.80;15.60;;;;;;;3.01;74.99;98463.65;218730;1295;22548;-75
2023/03/04 15:04:00;;;;;;;26.50;15.70;;;;;;;2.95;75.21;98458.48;218689;1295;23253;-76
2023/03/04 15:09:03;;;;;;;;;;;;;;;2.90;75.24;98458.45;218752;1297;24314;-75
2023/03/04 15:14:05;;;;;;;22.10;13.70;;;;;;;2.87;75.36;98455.65;218797;1280;24145;-75
2023/03/04 15:19:29;;;;;;;25.40;15.80;;;;;;;2.84;75.29;98450.65;218602;1280;25271;-75
2023/03/04 15:24:31;;;;;;;25.30;14.50;;;;;;;2.80;75.56;98440.30;218524;1295;22554;-75
2023/03/04 15:29:33;;;;;;;22.90;13.80;;;;;;;2.75;75.15;98433.84;218523;1295;25300;-75
2023/03/04 15:34:35;;;;;;;24.40;14.80;;;;;;;2.67;75.33;98434.38;218833;1296;22543;-75
2023/03/04 15:39:37;;;;;;;27.50;15.30;;;;;;;2.64;75.52;98431.73;218442;1296;22760;-75
2023/03/04 15:44:39;;;;;;;25.90;14.30;;;;;;;2.63;75.61;98429.58;218458;1297;24254;-75
2023/03/04 15:49:43;;;;;;;27.40;16.20;;;;;;;2.62;75.58;98435.63;218470;1292;22548;-76
2023/03/04 15:54:47;;;;;;;27.10;15.60;;;;;;;2.58;75.56;98429.91;218527;1297;25598;-76
2023/03/04 15:59:50;;;;;;;30.60;17.00;;;;;;;2.51;75.43;98421.52;218736;1295;22501;-75
2023/03/04 16:04:53;;;;;;;28.60;16.80;;;;;;;2.44;75.45;98428.48;218858;1289;24409;-75
2023/03/04 16:10:04;;;;;;;31.20;15.90;;;;;;;2.37;75.61;98427.16;218564;1295;22552;-75
2023/03/04 16:15:19;;;;;;;30.00;17.40;;;;;;;2.32;75.75;98424.01;218739;1292;24428;-74
2023/03/04 16:20:23;;;;;;;26.60;15.90;;;;;;;2.32;75.97;98423.55;218387;1297;25264;-75
2023/03/04 16:25:28;;;;;;;27.20;15.80;;;;;;;2.33;76.13;98427.45;218854;1289;22557;-75
2023/03/04 16:30:30;;;;;;;26.70;15.80;;;;;;;2.34;76.10;98428.73;218738;1295;23754;-76
2023/03/04 16:35:35;;;;;;;29.50;16.00;;;;;;;2.37;76.36;98431.17;218559;1281;23306;-75
2023/03/04 16:40:38;;;;;;;28.70;16.60;;;;;;;2.42;76.41;98432.95;218739;1297;22553;-76
2023/03/04 16:45:40;;;;;;;26.90;16.10;;;;;;;2.44;76.17;98431.88;218555;1292;22549;-76
2023/03/04 16:50:43;;;;;;;28.60;17.50;;;;;;;2.46;76.27;98435.41;218806;1292;22549;-76
2023/03/04 16:55:45;;;;;;;30.20;18.40;;;;;;;2.47;76.38;98438.04;218268;1296;22643;-75
2023/03/04 17:00:53;;;;;;;28.00;16.80;;;;;;;2.48;76.22;98439.39;218569;1293;24275;-75
2023/03/04 17:05:55;;;;;;;28.40;17.20;;;;;;;2.47;76.25;98440.30;218700;1289;22616;-75
2023/03/04 17:10:57;;;;;;;32.90;18.50;;;;;;;2.44;76.20;98440.05;218841;1295;24409;-75
2023/03/04 17:16:01;;;;;;;26.40;16.60;;;;;;;2.43;76.18;98440.70;218716;1297;25131;-75
2023/03/04 17:21:06;;;;;;;33.90;17.80;;;;;;;2.43;76.43;98435.29;218559;1297;22598;-77
2023/03/04 17:26:09;;;;;;;29.90;17.70;;;;;;;2.45;76.48;98437.74;218633;1292;24291;-76
2023/03/04 17:31:14;;;;;;;31.60;18.10;;;;;;;2.46;76.47;98442.48;218865;1296;24285;-76
2023/03/04 17:36:20;;;;;;;30.50;17.40;;;;;;;2.45;76.59;98447.59;218558;1296;22564;-75
2023/03/04 17:41:23;;;;;;;25.80;16.40;;;;;;;2.44;76.55;98444.80;218858;1295;23722;-75
2023/03/04 17:46:26;;;;;;;29.80;17.70;;;;;;;2.44;76.54;98447.02;218625;1292;27476;-75
2023/03/04 17:51:30;;;;;;;28.70;17.00;;;;;;;2.46;76.73;98447.38;218776;1297;22550;-75
2023/03/04 17:56:33;;;;;;;30.00;18.80;;;;;;;2.47;76.69;98447.98;218616;1292;25319;-75
2023/03/04 18:01:36;;;;;;;30.70;17.90;;;;;;;2.48;76.79;98449.81;218610;1297;25260;-75
2023/03/04 18:06:38;;;;;;;31.20;17.20;;;;;;;2.48;76.95;98443.36;218588;1286;23785;-75
2023/03/04 18:11:42;;;;;;;26.00;16.40;;;;;;;2.49;76.84;98436.52;218867;1296;22687;-75
2023/03/04 18:16:45;;;;;;;26.60;15.60;;;;;;;2.46;76.95;98435.33;218821;1297;22647;-75
2023/03/04 18:21:47;;;;;;;24.70;16.60;;;;;;;2.45;77.21;98443.27;218485;1296;22812;-75
2023/03/04 18:26:49;;;;;;;23.70;14.90;;;;;;;2.46;77.24;98448.91;218833;1296;23790;-75
2023/03/04 18:31:51;;;;;;;19.20;12.60;;;;;;;2.49;77.52;98446.27;218457;1294;24238;-76
2023/03/04 18:36:53;;;;;;;16.60;11.20;;;;;;;2.52;77.83;98449.95;218791;1296;24236;-75
2023/03/04 18:41:55;;;;;;;19.00;12.90;;;;;;;2.55;78.02;98453.98;218920;1294;25366;-75
2023/03/04 18:46:57;;;;;;;19.30;12.30;;;;;;;2.57;78.05;98457.44;218499;1296;23201;-74
2023/03/04 18:52:00;;;;;;;19.50;12.60;;;;;;;2.60;78.03;98454.74;218060;1295;24270;-75
2023/03/04 18:57:08;;;;;;;16.40;11.00;;;;;;;2.63;78.27;98452.75;218209;1297;23970;-76
2023/03/04 19:02:24;;;;;;;19.40;12.70;;;;;;;2.64;78.13;98454.55;218705;1297;24157;-75
2023/03/04 19:07:26;;;;;;;20.90;12.80;;;;;;;2.64;78.25;98457.86;218609;1295;22545;-75
2023/03/04 19:12:28;;;;;;;20.00;12.50;;;;;;;2.65;78.50;98457.44;218473;1297;22557;-75
2023/03/04 19:17:31;;;;;;;18.00;11.20;;;;;;;2.68;78.44;98463.08;218573;1292;22919;-75
2023/03/04 19:22:34;;;;;;;16.50;10.30;;;;;;;2.73;78.71;98461.52;218315;1295;22549;-75
2023/03/04 19:27:37;;;;;;;15.80;10.70;;;;;;;2.76;78.83;98461.86;218672;1292;25305;-74
2023/03/04 19:32:38;;;;;;;20.40;11.40;;;;;;;2.78;78.84;98463.59;218443;1297;25380;-75
2023/03/04 19:37:41;;;;;;;18.40;11.60;;;;;;;2.78;79.12;98467.95;218750;1297;24322;-76
2023/03/04 19:42:45;;;;;;;18.70;11.80;;;;;;;2.78;79.39;98469.55;218546;1293;24253;-75
2023/03/04 19:47:47;;;;;;;16.20;11.00;;;;;;;2.76;79.40;98467.80;218939;1293;24252;-75
2023/03/04 19:52:49;;;;;;;22.40;11.00;;;;;;;2.74;79.72;98466.77;218475;1288;22572;-74
2023/03/04 19:57:51;;;;;;;18.80;11.70;;;;;;;2.71;79.71;98473.69;218807;1295;25331;-76
2023/03/04 20:02:56;;;;;;;13.80;9.50;;;;;;;2.65;79.89;98471.45;218852;1295;22573;-75
2023/03/04 20:07:59;;;;;;;14.30;8.60;;;;;;;2.60;80.25;98470.61;218522;1297;22536;-75
2023/03/04 20:13:03;;;;;;;14.40;8.90;;;;;;;2.57;80.26;98462.87;219266;1289;24420;-75
2023/03/04 20:18:05;;;;;;;17.60;10.20;;;;;;;2.53;80.28;98464.13;218174;1297;25455;-75
2023/03/04 20:23:10;;;;;;;15.30;9.30;;;;;;;2.51;80.44;98474.20;218519;1296;25430;-75
2023/03/04 20:28:12;;;;;;;14.00;9.10;;;;;;;2.50;80.49;98468.58;218920;1287;23771;-76
2023/03/04 20:33:15;;;;;;;13.70;9.40;;;;;;;2.51;80.50;98469.70;218852;1292;22550;-75
2023/03/04 20:38:17;;;;;;;17.50;10.80;;;;;;;2.51;80.55;98468.79;218674;1295;23774;-75
2023/03/04 20:43:21;;;;;;;18.10;12.20;;;;;;;2.47;80.40;98465.35;218309;1295;25283;-75
2023/03/04 20:48:23;;;;;;;19.10;11.70;;;;;;;2.40;80.33;98461.17;218550;1280;25109;-75
2023/03/04 20:53:26;;;;;;;15.50;10.60;;;;;;;2.32;80.52;98456.50;218269;1297;22545;-74
2023/03/04 20:58:28;;;;;;;17.90;12.30;;;;;;;2.28;80.90;98458.79;218596;1292;22559;-76
2023/03/04 21:03:30;;;;;;;18.10;12.80;;;;;;;2.23;80.92;98458.95;218543;1295;22657;-75
2023/03/04 21:08:36;;;;;;;21.80;14.50;;;;;;;2.19;81.36;98458.61;218945;1297;22544;-75
2023/03/04 21:13:40;;;;;;;23.50;14.10;;;;;;;2.17;81.37;98459.33;218573;1297;22538;-75
2023/03/04 21:18:43;;;;;;;22.80;13.90;;;;;;;2.15;81.38;98452.92;218760;1297;22608;-76
2023/03/04 21:23:45;;;;;;;22.00;13.20;;;;;;;2.13;81.59;98451.33;218611;1288;25413;-76
2023/03/04 21:28:47;;;;;;;18.10;11.90;;;;;;;2.15;81.88;98449.98;218637;1296;25423;-75
2023/03/04 21:33:53;;;;;;;19.40;11.00;;;;;;;2.20;81.99;98444.45;218748;1296;22569;-75
2023/03/04 21:38:56;;;;;;;16.00;10.00;;;;;;;2.27;81.94;98442.05;218349;1297;22542;-74
2023/03/04 21:43:58;;;;;;;16.90;9.80;;;;;;;2.33;81.97;98440.24;218854;1296;25419;-75
2023/03/04 21:49:01;;;;;;;20.00;10.00;;;;;;;2.38;81.82;98442.58;218721;1297;22557;-75
2023/03/04 21:54:03;;;;;;;20.30;10.00;;;;;;;2.43;82.13;98450.59;218793;1295;22547;-75
2023/03/04 21:59:09;;;;;;;12.30;7.80;;;;;;;2.44;81.96;98463.52;218583;1297;22586;-75
2023/03/04 22:04:12;;;;;;;14.80;9.10;;;;;;;2.33;81.62;98464.58;218611;1297;23789;-74
2023/03/04 22:09:15;;;;;;;14.10;9.60;;;;;;;2.18;81.69;98459.73;218449;1295;24419;-75
2023/03/04 22:14:20;;;;;;;15.70;9.70;;;;;;;2.06;82.00;98463.12;218579;1297;22559;-75
2023/03/04 22:19:24;;;;;;;16.40;10.30;;;;;;;1.98;82.09;98462.16;218599;1297;22562;-75
2023/03/04 22:24:27;;;;;;;13.50;9.10;;;;;;;1.92;82.26;98457.19;218665;1279;22630;-75
2023/03/04 22:29:29;;;;;;;12.50;8.00;;;;;;;1.87;82.50;98464.08;218578;1296;22942;-75
2023/03/04 22:34:31;;;;;;;14.00;7.90;;;;;;;1.80;82.79;98460.36;218747;1293;24284;-74
2023/03/04 22:39:34;;;;;;;15.70;8.90;;;;;;;1.73;82.42;98467.44;218724;1297;22676;-76
2023/03/04 22:44:39;;;;;;;17.20;8.10;;;;;;;1.68;82.63;98468.71;218633;1297;22554;-74
2023/03/04 22:50:02;;;;;;;16.50;9.40;;;;;;;1.64;82.76;98470.67;218592;1297;22558;-76
2023/03/04 22:55:24;;;;;;;11.40;6.80;;;;;;;1.59;82.80;98472.65;218348;1297;22591;-76
2023/03/04 23:00:28;;;;;;;13.00;7.30;;;;;;;1.52;82.79;98473.54;218575;1296;22545;-74
2023/03/04 23:05:31;;;;;;;13.80;8.00;;;;;;;1.46;82.91;98471.61;218692;1297;24265;-75
2023/03/04 23:10:33;;;;;;;13.80;8.50;;;;;;;1.45;83.09;98472.30;218889;1296;22545;-74
2023/03/04 23:15:35;;;;;;;16.40;8.60;;;;;;;1.41;83.21;98479.18;218283;1295;179664;-74
2023/03/04 23:20:41;;;;;;;13.30;8.60;;;;;;;1.36;83.31;98480.49;218588;1292;22572;-75
2023/03/04 23:25:45;;;;;;;16.00;9.40;;;;;;;1.32;83.19;98489.23;218664;1297;23034;-74